Terminal Aerodrome Forecast
Issued by NWS

Home | Current Version | Previous Version | Text Only | Print | Product List | Glossary On
Versions: 1 2 3 4 5 6 7 8 9 10 11 12
000
FTUS44 KLZK 221700
TAFLLQ
TAF
KLLQ 221734Z 2218/2318 08009KT P6SM SCT250
     FM230000 09004KT P6SM FEW100 SCT250
     FM230500 10004KT P6SM SCT100 BKN250
     FM231400 14007KT P6SM FEW050 SCT100 BKN250=

USA.gov is the U.S. government's official web portal to all federal, state and local government web resources and services.